Terminal Aerodrome Forecast
Issued by NWS

Home | Current Version | Previous Version | Text Only | Print | Product List | Glossary On
Versions: 1 2 3 4 5 6 7 8 9 10 11 12 13 14 15 16 17 18 19 20
000
FTUS46 KSTO 181700
TAFSAC
TAF
KSAC 181732Z 1818/1918 15006KT P6SM BKN200
     FM190800 15010KT P6SM VCSH OVC040
     FM191500 15010KT 4SM -RA BR OVC025=

USA.gov is the U.S. government's official web portal to all federal, state and local government web resources and services.